Time;durP1;ratioP1;P1;durP2;ratioP2;P2;SDS_P1;SDS_P2;PMS_P1;PMS_P2;Temp;Humidity;BMP_temperature;BMP_pressure;BME280_temperature;BME280_humidity;BME280_pressure;Samples;Min_cycle;Max_cycle;Signal;HPM_P1;HPM_P2
2022/07/31 00:01:24;;;;;;;4.72;4.32;;;;;;;22.40;58.54;99514.47;4350662;32;33720;-88
2022/07/31 00:03:52;;;;;;;5.00;3.60;;;;;;;21.75;60.25;99513.56;4375159;32;32582;-88
2022/07/31 00:06:21;;;;;;;4.32;3.65;;;;;;;21.89;60.09;99519.31;4332559;32;32854;-88
2022/07/31 00:08:49;;;;;;;7.47;4.50;;;;;;;21.97;59.88;99513.19;4356512;32;32932;-87
2022/07/31 00:11:17;;;;;;;4.97;4.47;;;;;;;21.95;59.76;99509.81;4356046;32;32890;-87
2022/07/31 00:13:45;;;;;;;4.97;3.83;;;;;;;21.84;60.13;99510.84;4326941;32;33560;-86
2022/07/31 00:16:25;;;;;;;4.20;3.72;;;;;;;21.84;60.40;99504.59;4351076;32;33179;-86
2022/07/31 00:18:53;;;;;;;5.25;4.00;;;;;;;21.78;60.24;99515.94;4348028;33;33975;-87
2022/07/31 00:21:20;;;;;;;4.50;4.05;;;;;;;21.92;59.93;99508.25;4376377;32;34383;-87
2022/07/31 00:23:49;;;;;;;7.62;3.97;;;;;;;21.54;60.97;99509.19;4361787;32;33191;-85
2022/07/31 00:26:17;;;;;;;5.82;4.47;;;;;;;21.91;60.02;99497.66;4339243;32;32344;-84
2022/07/31 00:28:46;;;;;;;7.40;4.37;;;;;;;21.66;60.92;99505.37;4354885;32;32682;-84
2022/07/31 00:31:17;;;;;;;6.78;4.90;;;;;;;21.78;60.26;99508.72;4379012;32;34570;-84
2022/07/31 00:33:46;;;;;;;6.85;5.60;;;;;;;21.42;61.11;99505.00;4375068;32;33447;-84
2022/07/31 00:36:14;;;;;;;7.22;5.25;;;;;;;21.48;61.14;99496.34;4371828;32;34535;-85
2022/07/31 00:38:42;;;;;;;7.75;5.00;;;;;;;21.52;60.87;99508.50;4379955;32;33812;-85
2022/07/31 00:41:10;;;;;;;6.78;4.90;;;;;;;21.23;61.81;99503.16;4369581;32;33837;-86
2022/07/31 00:43:38;;;;;;;9.50;4.82;;;;;;;21.62;60.53;99503.97;4383832;32;33266;-86
2022/07/31 00:46:06;;;;;;;6.65;4.50;;;;;;;21.84;59.95;99509.97;4352251;32;35548;-85
2022/07/31 00:48:40;;;;;;;7.65;5.10;;;;;;;21.75;60.28;99506.34;4364438;32;33475;-86
2022/07/31 00:51:09;;;;;;;6.87;5.40;;;;;;;21.14;61.79;99504.84;4371666;32;33805;-86
2022/07/31 00:53:37;;;;;;;6.00;5.37;;;;;;;21.38;61.43;99507.13;4354250;32;32372;-86
2022/07/31 00:56:04;;;;;;;5.93;5.30;;;;;;;20.90;62.97;99507.09;4351898;32;33327;-86
2022/07/31 00:58:32;;;;;;;4.78;4.25;;;;;;;21.42;61.07;99507.69;4368288;32;33931;-86
2022/07/31 01:01:00;;;;;;;5.82;4.65;;;;;;;21.03;61.97;99507.66;4368927;32;33255;-87
2022/07/31 01:03:28;;;;;;;8.35;5.32;;;;;;;21.17;61.81;99506.37;4362252;32;32099;-85
2022/07/31 01:05:56;;;;;;;5.97;4.15;;;;;;;21.58;60.41;99507.94;4394455;32;33894;-85
2022/07/31 01:08:23;;;;;;;5.47;4.10;;;;;;;21.41;60.61;99522.06;4363798;32;33370;-86
2022/07/31 01:11:02;;;;;;;4.32;3.85;;;;;;;21.46;nan;99519.84;4346393;32;34118;-86
2022/07/31 01:13:53;;;;;;;5.57;3.85;;;;;;;21.29;60.91;99517.84;4374382;32;34352;-86
2022/07/31 01:16:22;;;;;;;5.75;3.45;;;;;;;21.38;61.00;99519.69;4385695;32;33801;-85
2022/07/31 01:18:51;;;;;;;5.05;3.87;;;;;;;21.69;59.65;99521.19;4377631;32;33691;-86
2022/07/31 01:21:31;;;;;;;5.75;3.50;;;;;;;21.66;59.44;99520.66;4389200;32;33439;-85
2022/07/31 01:24:14;;;;;;;3.62;2.83;;;;;;;21.26;60.64;99518.09;4389784;32;33412;-85
2022/07/31 01:26:53;;;;;;;6.75;3.83;;;;;;;21.60;59.53;99521.22;4366451;32;32780;-86
2022/07/31 01:29:22;;;;;;;3.42;3.12;;;;;;;21.48;59.56;99523.22;4350608;32;33261;-85
2022/07/31 01:31:57;;;;;;;3.20;2.83;;;;;;;21.21;60.23;99534.63;4375155;32;34546;-86
2022/07/31 01:34:56;;;;;;;3.78;2.87;;;;;;;20.96;61.08;99528.00;4387317;32;34118;-86
2022/07/31 01:37:46;;;;;;;3.05;2.78;;;;;;;21.19;60.54;99540.16;4350205;32;34056;-86
2022/07/31 01:40:25;;;;;;;2.90;2.67;;;;;;;21.68;58.91;99532.94;4368239;32;32468;-86
2022/07/31 01:43:01;;;;;;;2.97;2.67;;;;;;;21.32;59.60;99537.25;4361627;32;33950;-85
2022/07/31 01:45:29;;;;;;;2.70;2.50;;;;;;;21.32;59.77;99533.72;4366250;32;33020;-85
2022/07/31 01:47:57;;;;;;;2.65;2.45;;;;;;;21.55;59.53;99537.75;4376073;32;33612;-85
2022/07/31 01:50:27;;;;;;;2.75;2.55;;;;;;;21.65;59.19;99533.25;4364067;32;33548;-87
2022/07/31 01:53:17;;;;;;;3.00;2.28;;;;;;;21.63;58.99;99532.53;4370138;32;34921;-89
2022/07/31 01:55:49;;;;;;;2.53;2.33;;;;;;;22.03;57.78;99527.87;4357138;32;33817;-88
2022/07/31 01:58:38;;;;;;;2.58;2.37;;;;;;;22.05;57.93;99532.12;4346108;32;32568;-89
2022/07/31 02:01:08;;;;;;;4.47;2.95;;;;;;;21.81;57.99;99534.47;4371004;32;33399;-86
2022/07/31 02:03:39;;;;;;;3.25;2.47;;;;;;;21.79;58.23;99531.06;4355211;32;33775;-87
2022/07/31 02:06:13;;;;;;;2.67;2.47;;;;;;;21.34;59.92;99539.78;4364903;32;33922;-87
2022/07/31 02:08:46;;;;;;;2.25;1.98;;;;;;;21.51;58.76;99532.81;4373541;32;34227;-88
2022/07/31 02:11:20;;;;;;;4.80;2.33;;;;;;;21.79;58.12;99531.94;4372239;32;34483;-86
2022/07/31 02:13:49;;;;;;;2.53;2.30;;;;;;;21.35;59.18;99530.72;4362366;32;33850;-86
2022/07/31 02:16:18;;;;;;;2.33;2.10;;;;;;;21.80;58.27;99527.41;4365396;32;32236;-85
2022/07/31 02:18:50;;;;;;;4.25;2.08;;;;;;;21.89;57.81;99518.47;4368821;32;34389;-87
2022/07/31 02:21:19;;;;;;;3.75;2.37;;;;;;;21.38;59.14;99517.00;4361454;32;33335;-87
2022/07/31 02:23:47;;;;;;;3.62;1.87;;;;;;;21.46;59.19;99519.84;4356775;32;32452;-87
2022/07/31 02:26:16;;;;;;;3.58;1.98;;;;;;;21.56;58.93;99509.91;4380699;32;33175;-87
2022/07/31 02:28:46;;;;;;;2.33;2.10;;;;;;;21.57;58.14;99500.88;4367095;32;33234;-88
2022/07/31 02:31:16;;;;;;;2.10;1.90;;;;;;;21.52;58.32;99497.78;4366309;32;33617;-85
2022/07/31 02:33:45;;;;;;;2.95;2.12;;;;;;;21.78;57.84;99492.59;4353327;32;33737;-85
2022/07/31 02:36:15;;;;;;;2.33;2.12;;;;;;;21.42;58.51;99491.56;4363063;32;32570;-84
2022/07/31 02:38:45;;;;;;;2.85;2.40;;;;;;;21.12;59.41;99489.84;4362214;32;34642;-85
2022/07/31 02:41:16;;;;;;;4.50;2.45;;;;;;;21.24;59.34;99494.09;4367201;32;33617;-84
2022/07/31 02:43:46;;;;;;;5.35;2.35;;;;;;;21.56;58.40;99482.22;4365832;32;33460;-86
2022/07/31 02:46:19;;;;;;;2.80;2.60;;;;;;;21.14;59.66;99488.72;4380556;32;33832;-88
2022/07/31 02:48:48;;;;;;;5.35;2.30;;;;;;;21.20;59.56;99485.47;4365438;32;34666;-88
2022/07/31 02:51:17;;;;;;;2.50;2.25;;;;;;;21.29;59.07;99489.13;4345782;32;32579;-87
2022/07/31 02:53:45;;;;;;;3.80;2.37;;;;;;;21.20;59.16;99488.16;4337964;32;33122;-84
2022/07/31 02:56:15;;;;;;;2.35;2.08;;;;;;;20.83;60.06;99495.22;4365040;32;32576;-85
2022/07/31 02:58:43;;;;;;;1.92;1.80;;;;;;;21.26;59.12;99489.41;4364860;32;32617;-84
2022/07/31 03:01:13;;;;;;;3.55;2.60;;;;;;;21.33;58.27;99497.78;4366373;32;33764;-84
2022/07/31 03:03:42;;;;;;;3.03;2.45;;;;;;;21.43;57.98;99498.63;4361871;32;33470;-84
2022/07/31 03:06:11;;;;;;;2.33;2.12;;;;;;;21.03;58.75;99499.63;4390727;32;33698;-84
2022/07/31 03:08:40;;;;;;;3.10;2.15;;;;;;;21.08;58.32;99499.16;4363059;32;33608;-87
2022/07/31 03:11:08;;;;;;;4.95;1.92;;;;;;;20.95;58.88;99496.78;4350381;32;32950;-87
2022/07/31 03:13:37;;;;;;;3.45;2.28;;;;;;;20.68;59.45;99502.81;4371256;32;33030;-87
2022/07/31 03:16:06;;;;;;;2.30;2.10;;;;;;;20.83;59.01;99508.63;4370893;32;32385;-85
2022/07/31 03:18:34;;;;;;;3.42;2.40;;;;;;;20.92;58.78;99500.59;4376265;32;32861;-85
2022/07/31 03:21:03;;;;;;;4.82;2.33;;;;;;;21.14;58.11;99494.09;4350209;32;32890;-88
2022/07/31 03:23:35;;;;;;;4.07;2.33;;;;;;;20.92;58.63;99494.38;4365365;32;33351;-86
2022/07/31 03:26:04;;;;;;;2.62;2.35;;;;;;;20.64;59.41;99483.47;4352372;32;33559;-86
2022/07/31 03:28:34;;;;;;;5.50;2.50;;;;;;;20.95;58.76;99492.25;4354392;32;33882;-87
2022/07/31 03:31:03;;;;;;;4.40;2.50;;;;;;;21.06;58.63;99499.31;4343357;32;32853;-87
2022/07/31 03:33:31;;;;;;;3.33;3.03;;;;;;;21.20;58.35;99488.16;4358981;32;33356;-87
2022/07/31 03:36:00;;;;;;;3.87;2.65;;;;;;;21.19;58.61;99491.84;4350682;32;32012;-88
2022/07/31 03:38:28;;;;;;;4.43;3.12;;;;;;;21.12;58.76;99495.22;4366536;32;33143;-87
2022/07/31 03:41:09;;;;;;;3.05;2.78;;;;;;;20.85;59.97;99482.50;4365989;32;33120;-87
2022/07/31 03:43:38;;;;;;;3.45;3.08;;;;;;;21.30;58.75;99488.13;4355585;32;33437;-86
2022/07/31 03:46:18;;;;;;;3.17;2.95;;;;;;;21.26;58.94;99484.03;4367244;32;32258;-87
2022/07/31 03:48:50;;;;;;;3.78;3.22;;;;;;;20.64;60.91;99485.28;4376946;32;34146;-87
2022/07/31 03:51:18;;;;;;;;;;;;;;;21.06;59.26;99480.53;4371847;32;33031;-86
2022/07/31 03:56:25;;;;;;;6.50;3.85;;;;;;;21.48;58.35;99486.47;4376986;32;33126;-88
2022/07/31 03:58:53;;;;;;;5.07;3.83;;;;;;;21.10;58.59;99487.31;4378392;32;32702;-87
2022/07/31 04:01:21;;;;;;;4.35;3.53;;;;;;;20.90;59.58;99491.84;4357468;32;32578;-88
2022/07/31 04:03:58;;;;;;;6.28;3.65;;;;;;;21.01;59.22;99498.91;4373924;32;33798;-87
2022/07/31 04:06:26;;;;;;;3.97;3.67;;;;;;;20.76;59.89;99494.94;4360884;32;32626;-84
2022/07/31 04:08:55;;;;;;;5.10;3.33;;;;;;;21.32;58.43;99491.59;4349311;32;33705;-85
2022/07/31 04:11:24;;;;;;;3.90;3.42;;;;;;;20.88;59.47;99492.94;4366804;32;33432;-84
2022/07/31 04:13:51;;;;;;;6.40;3.37;;;;;;;21.26;58.51;99496.63;4353416;32;33247;-85
2022/07/31 04:16:20;;;;;;;3.53;3.22;;;;;;;21.45;58.00;99497.47;4375915;32;33581;-85
2022/07/31 04:18:48;;;;;;;3.03;2.78;;;;;;;21.21;58.50;99500.59;4386488;32;33483;-86
2022/07/31 04:21:17;;;;;;;4.07;3.50;;;;;;;21.21;58.61;99505.94;4385336;32;34069;-86
2022/07/31 04:23:47;;;;;;;5.07;3.60;;;;;;;21.48;57.20;99502.56;4373656;32;34475;-85
2022/07/31 04:26:17;;;;;;;;;;;;;;;21.11;58.22;99499.75;4355757;32;32557;-85
2022/07/31 04:28:53;;;;;;;5.25;2.92;;;;;;;21.20;58.34;99508.78;4370048;32;34029;-85
2022/07/31 04:31:23;;;;;;;6.12;3.20;;;;;;;20.83;59.00;99514.84;4374627;32;33957;-84
2022/07/31 04:33:53;;;;;;;4.80;3.00;;;;;;;21.16;57.95;99502.84;4356241;32;33022;-85
2022/07/31 04:36:25;;;;;;;3.10;2.80;;;;;;;21.33;57.89;99504.00;4359483;32;32236;-84
2022/07/31 04:38:58;;;;;;;4.53;2.58;;;;;;;21.16;57.90;99512.75;4344807;32;33276;-85
2022/07/31 04:41:27;;;;;;;2.90;2.70;;;;;;;20.99;58.28;99506.25;4358513;32;33813;-85
2022/07/31 04:43:58;;;;;;;7.03;2.53;;;;;;;20.79;59.05;99499.16;4342431;32;32823;-85
2022/07/31 04:46:32;;;;;;;4.57;2.60;;;;;;;20.58;59.47;99507.31;4343964;32;31535;-84
2022/07/31 04:49:00;;;;;;;2.53;2.33;;;;;;;20.95;58.34;99503.00;4350884;32;32861;-85
2022/07/31 04:51:28;;;;;;;3.67;2.75;;;;;;;20.73;59.08;99499.72;4338056;32;33569;-85
2022/07/31 04:53:57;;;;;;;3.60;2.50;;;;;;;20.60;59.30;99495.44;4346874;32;33529;-84
2022/07/31 04:56:32;;;;;;;2.85;2.28;;;;;;;20.83;58.52;99496.06;4359528;32;32278;-85
2022/07/31 04:59:08;;;;;;;2.50;2.30;;;;;;;21.08;58.08;99500.03;4342742;32;32756;-85
2022/07/31 05:01:37;;;;;;;3.37;2.53;;;;;;;20.61;59.18;99478.38;4371872;32;33706;-86
2022/07/31 05:04:07;;;;;;;3.35;3.05;;;;;;;20.67;59.33;99496.59;4340449;32;32838;-85
2022/07/31 05:06:47;;;;;;;4.15;2.67;;;;;;;20.44;59.92;99495.97;4358366;32;33121;-86
2022/07/31 05:09:23;;;;;;;3.40;2.92;;;;;;;20.66;59.67;99497.59;4345269;32;33474;-85
2022/07/31 05:11:53;;;;;;;3.42;2.85;;;;;;;20.58;59.52;99499.28;4336628;32;32161;-84
2022/07/31 05:14:21;;;;;;;3.53;2.87;;;;;;;20.75;59.37;99497.72;4357159;32;33425;-85
2022/07/31 05:16:51;;;;;;;3.03;2.83;;;;;;;20.60;59.61;99495.44;4351353;32;34019;-86
2022/07/31 05:19:20;;;;;;;2.80;2.60;;;;;;;20.58;59.92;99497.44;4347152;32;33753;-86
2022/07/31 05:21:50;;;;;;;2.85;2.62;;;;;;;20.75;59.43;99495.03;4346284;32;32981;-85
2022/07/31 05:24:30;;;;;;;5.37;2.53;;;;;;;20.49;60.63;99495.56;4352685;32;32242;-85
2022/07/31 05:27:01;;;;;;;2.78;2.42;;;;;;;20.16;61.93;99494.88;4335429;32;32833;-85
2022/07/31 05:29:30;;;;;;;4.47;2.67;;;;;;;20.69;61.06;99512.56;4355063;32;34553;-86
2022/07/31 05:31:58;;;;;;;3.30;3.00;;;;;;;20.41;63.03;99503.41;4342830;32;33942;-85
2022/07/31 05:34:30;;;;;;;3.00;2.70;;;;;;;20.62;62.17;99506.91;4352865;32;33190;-85
2022/07/31 05:36:59;;;;;;;6.20;3.22;;;;;;;20.34;63.13;99505.81;4370909;32;32468;-84
2022/07/31 05:39:29;;;;;;;2.83;2.60;;;;;;;20.56;63.06;99504.78;4376993;32;33570;-84
2022/07/31 05:42:00;;;;;;;4.62;3.22;;;;;;;20.18;63.86;99510.84;4370728;32;33251;-84
2022/07/31 05:44:30;;;;;;;3.28;2.97;;;;;;;20.19;63.81;99509.84;4352197;32;34210;-84
2022/07/31 05:47:15;;;;;;;5.80;3.60;;;;;;;20.13;63.74;99516.62;4359695;32;33421;-84
2022/07/31 05:49:44;;;;;;;5.18;3.30;;;;;;;20.31;63.26;99514.13;4366667;32;34330;-84
2022/07/31 05:52:12;;;;;;;4.30;3.10;;;;;;;20.19;62.70;99513.37;4370969;32;34006;-84
2022/07/31 05:54:41;;;;;;;4.90;3.37;;;;;;;19.96;63.85;99522.59;4359452;32;32420;-84
2022/07/31 05:57:10;;;;;;;3.78;3.20;;;;;;;20.29;62.65;99515.25;4367228;32;32406;-84
2022/07/31 06:00:00;;;;;;;4.18;2.90;;;;;;;20.07;63.23;99519.81;4353715;32;32968;-88
2022/07/31 06:02:39;;;;;;;5.25;3.20;;;;;;;20.13;63.47;99530.00;4387791;32;34149;-88
2022/07/31 06:05:11;;;;;;;3.70;2.97;;;;;;;20.42;62.46;99523.91;4376192;32;33629;-88
2022/07/31 06:07:43;;;;;;;5.20;3.37;;;;;;;20.49;62.05;99527.75;4361320;32;34012;-87
2022/07/31 06:10:19;;;;;;;3.12;2.83;;;;;;;20.20;63.47;99523.13;4378273;32;33425;-88
2022/07/31 06:12:51;;;;;;;3.12;2.83;;;;;;;20.58;62.09;99529.63;4361336;32;34266;-88
2022/07/31 06:15:21;;;;;;;3.70;2.65;;;;;;;20.08;63.60;99531.38;4358215;32;34225;-88
2022/07/31 06:17:49;;;;;;;3.42;3.00;;;;;;;20.32;62.94;99523.88;4377787;32;32221;-88
2022/07/31 06:20:20;;;;;;;6.40;2.78;;;;;;;20.60;61.36;99527.63;4367449;32;34172;-88
2022/07/31 06:22:50;;;;;;;3.03;2.72;;;;;;;20.43;62.42;99530.97;4347271;32;33162;-87
2022/07/31 06:25:19;;;;;;;3.97;2.35;;;;;;;20.17;63.26;99533.25;4346891;32;32920;-88
2022/07/31 06:27:50;;;;;;;3.05;2.75;;;;;;;20.08;63.62;99537.63;4346012;32;34301;-88
2022/07/31 06:30:28;;;;;;;5.07;2.60;;;;;;;20.14;63.54;99539.75;4369779;32;33263;-88
2022/07/31 06:32:57;;;;;;;4.18;2.72;;;;;;;20.44;62.97;99548.75;4368678;32;34048;-88
2022/07/31 06:35:28;;;;;;;3.80;2.70;;;;;;;20.30;63.28;99541.06;4358077;32;33533;-88
2022/07/31 06:38:01;;;;;;;4.18;2.53;;;;;;;19.65;66.25;99537.75;4360254;32;32345;-88
2022/07/31 06:40:33;;;;;;;4.85;3.03;;;;;;;20.03;64.23;99545.19;4373801;32;32999;-88
2022/07/31 06:43:10;;;;;;;3.10;2.78;;;;;;;19.94;65.02;99537.97;4360716;32;33357;-88
2022/07/31 06:45:43;;;;;;;3.62;2.87;;;;;;;20.06;63.75;99544.91;4351531;32;33693;-88
2022/07/31 06:48:23;;;;;;;4.05;2.53;;;;;;;20.08;63.82;99553.69;4351752;32;32557;-88
2022/07/31 06:50:56;;;;;;;3.37;2.47;;;;;;;20.13;63.91;99555.94;4370206;32;33850;-88
2022/07/31 06:53:45;;;;;;;3.97;2.70;;;;;;;20.35;62.95;99555.75;4373643;32;32776;-88
2022/07/31 06:56:13;;;;;;;2.70;2.50;;;;;;;20.31;62.92;99553.50;4358290;32;33165;-88
2022/07/31 06:58:42;;;;;;;4.35;2.70;;;;;;;20.26;62.81;99550.38;4364242;32;33673;-88
2022/07/31 07:01:12;;;;;;;2.72;2.53;;;;;;;20.61;61.51;99545.47;4362748;32;32214;-88
2022/07/31 07:03:42;;;;;;;3.00;2.40;;;;;;;20.73;60.96;99548.84;4362137;32;33793;-88
2022/07/31 07:06:12;;;;;;;3.10;2.53;;;;;;;20.34;62.10;99554.06;4335157;32;32870;-88
2022/07/31 07:08:44;;;;;;;2.95;1.98;;;;;;;20.53;61.65;99547.97;4349653;32;32878;-88
2022/07/31 07:11:14;;;;;;;5.93;2.45;;;;;;;20.28;62.53;99540.38;4360775;32;34138;-88
2022/07/31 07:13:43;;;;;;;2.20;2.00;;;;;;;20.29;62.26;99544.75;4361305;32;33363;-88
2022/07/31 07:16:14;;;;;;;3.42;1.92;;;;;;;20.38;61.59;99543.94;4373007;32;33835;-83
2022/07/31 07:18:43;;;;;;;3.05;1.87;;;;;;;20.61;60.76;99540.09;4380546;32;33477;-83
2022/07/31 07:21:12;;;;;;;4.12;1.90;;;;;;;20.37;61.34;99536.87;4376676;32;32018;-83
2022/07/31 07:23:44;;;;;;;2.17;1.98;;;;;;;20.53;61.11;99537.25;4373804;32;34847;-83
2022/07/31 07:26:18;;;;;;;2.03;1.83;;;;;;;20.88;59.38;99535.87;4378045;32;34447;-83
2022/07/31 07:28:56;;;;;;;3.65;1.87;;;;;;;20.85;60.34;99538.88;4358769;32;34207;-83
2022/07/31 07:31:24;;;;;;;3.00;1.55;;;;;;;20.97;60.36;99535.06;4367230;32;33211;-83
2022/07/31 07:33:56;;;;;;;3.62;1.85;;;;;;;20.81;60.19;99530.25;4367190;32;33893;-83
2022/07/31 07:36:26;;;;;;;2.70;1.75;;;;;;;20.68;59.77;99525.12;4369188;32;33797;-83
2022/07/31 07:38:58;;;;;;;2.08;1.73;;;;;;;21.10;58.84;99532.94;4382966;32;32484;-84
2022/07/31 07:41:30;;;;;;;1.73;1.58;;;;;;;20.90;59.25;99536.63;4380005;32;36630;-84
2022/07/31 07:44:06;;;;;;;2.78;1.87;;;;;;;21.30;58.18;99519.53;4361240;32;34687;-84
2022/07/31 07:46:37;;;;;;;3.28;1.87;;;;;;;21.06;58.88;99522.63;4377064;32;33611;-84
2022/07/31 07:49:06;;;;;;;2.45;1.92;;;;;;;21.00;58.47;99528.56;4391407;32;32448;-84
2022/07/31 07:51:38;;;;;;;3.72;2.15;;;;;;;20.94;59.75;99532.66;4363818;32;33503;-84
2022/07/31 07:54:31;;;;;;;1.52;1.42;;;;;;;21.03;59.00;99531.84;4356347;32;32740;-83
2022/07/31 07:59:45;;;;;;;2.72;1.67;;;;;;;21.15;59.00;99538.75;4373901;32;34111;-84
2022/07/31 08:02:19;;;;;;;2.50;1.35;;;;;;;21.55;56.87;99528.84;4365297;32;33441;-84
2022/07/31 08:04:49;;;;;;;3.17;1.50;;;;;;;21.29;58.08;99523.19;4350552;32;33976;-85
2022/07/31 08:07:26;;;;;;;2.03;1.75;;;;;;;21.77;56.77;99527.69;4326859;32;33067;-84
2022/07/31 08:10:16;;;;;;;3.60;1.62;;;;;;;21.67;56.40;99538.47;4371694;32;33355;-84
2022/07/31 08:12:46;;;;;;;2.42;1.73;;;;;;;22.15;54.58;99534.81;4361125;32;32968;-84
2022/07/31 08:15:28;;;;;;;2.00;1.65;;;;;;;22.41;54.65;99535.00;4369984;32;32778;-84
2022/07/31 08:18:13;;;;;;;2.00;1.65;;;;;;;22.41;54.90;99545.78;4362442;32;33742;-84
2022/07/31 08:20:43;;;;;;;1.42;1.10;;;;;;;22.71;54.11;99544.59;4374402;32;32847;-85
2022/07/31 08:23:17;;;;;;;4.60;1.30;;;;;;;22.84;52.96;99552.34;4374001;32;35071;-85
2022/07/31 08:25:46;;;;;;;1.23;1.12;;;;;;;22.79;52.69;99551.91;4361023;32;31562;-85
2022/07/31 08:28:18;;;;;;;1.83;1.55;;;;;;;22.75;52.98;99546.00;4376114;32;32824;-84
2022/07/31 08:30:52;;;;;;;1.75;1.05;;;;;;;22.44;53.71;99542.75;4363969;32;33425;-84
2022/07/31 08:33:31;;;;;;;1.55;1.15;;;;;;;22.33;53.87;99546.50;4374869;32;33286;-84
2022/07/31 08:36:20;;;;;;;2.10;1.20;;;;;;;22.11;54.11;99553.09;4369334;32;35619;-84
2022/07/31 08:38:50;;;;;;;2.70;1.23;;;;;;;22.48;54.08;99550.38;4374207;32;33192;-83
2022/07/31 08:41:37;;;;;;;1.15;0.90;;;;;;;22.80;52.54;99542.84;4363705;32;32422;-83
2022/07/31 08:44:06;;;;;;;2.95;1.02;;;;;;;22.80;52.74;99537.47;4375378;32;33960;-84
2022/07/31 08:46:37;;;;;;;3.00;0.95;;;;;;;22.87;52.23;99555.53;4364067;32;32712;-84
2022/07/31 08:49:08;;;;;;;1.08;0.90;;;;;;;23.11;51.54;99554.13;4361293;32;32777;-84
2022/07/31 08:51:43;;;;;;;1.23;0.80;;;;;;;22.96;51.87;99548.44;4374598;32;32663;-84
2022/07/31 08:54:25;;;;;;;1.60;1.10;;;;;;;22.95;51.55;99558.37;4373933;32;33142;-84
2022/07/31 08:56:59;;;;;;;1.65;1.55;;;;;;;22.81;53.19;99560.69;4376886;32;33314;-84
2022/07/31 08:59:32;;;;;;;2.65;1.30;;;;;;;23.02;51.88;99553.19;4355953;32;32957;-84
2022/07/31 09:02:03;;;;;;;2.85;1.00;;;;;;;22.76;51.87;99558.44;4363660;32;32799;-84
2022/07/31 09:04:34;;;;;;;4.32;0.80;;;;;;;22.68;52.10;99559.19;4386594;32;33333;-84
2022/07/31 09:07:03;;;;;;;3.00;1.20;;;;;;;22.60;51.30;99559.13;4376588;32;33744;-84
2022/07/31 09:09:32;;;;;;;1.08;0.98;;;;;;;22.07;52.69;99569.63;4374877;32;35538;-84
2022/07/31 09:12:30;;;;;;;1.67;1.20;;;;;;;21.94;52.91;99576.19;4387403;32;31259;-84
2022/07/31 09:15:01;;;;;;;1.10;1.00;;;;;;;21.40;54.29;99580.31;4363358;32;33617;-84
2022/07/31 09:17:33;;;;;;;4.68;1.10;;;;;;;21.75;53.91;99576.22;4376228;32;33355;-84
2022/07/31 09:20:04;;;;;;;1.83;0.80;;;;;;;21.73;53.61;99586.25;4383594;32;33449;-84
2022/07/31 09:22:36;;;;;;;2.47;1.48;;;;;;;21.45;54.68;99582.59;4356162;32;32834;-85
2022/07/31 09:25:10;;;;;;;1.33;1.23;;;;;;;21.52;54.92;99583.72;4390397;32;32794;-84
2022/07/31 09:27:41;;;;;;;1.23;0.75;;;;;;;21.66;54.49;99585.97;4365890;32;32998;-84
2022/07/31 09:30:11;;;;;;;1.50;1.08;;;;;;;21.66;54.51;99591.34;4358519;32;34470;-83
2022/07/31 09:32:42;;;;;;;1.73;0.90;;;;;;;21.19;56.47;99612.66;4354272;32;32310;-84
2022/07/31 09:35:16;;;;;;;2.10;1.55;;;;;;;20.91;56.46;99595.50;4368998;32;34490;-85
2022/07/31 09:37:46;;;;;;;4.75;1.23;;;;;;;21.28;56.27;99602.91;4370717;32;33272;-84
2022/07/31 09:40:17;;;;;;;2.33;1.10;;;;;;;21.40;55.40;99593.75;4370638;32;34561;-84
2022/07/31 09:42:56;;;;;;;1.73;1.27;;;;;;;21.56;55.36;99577.09;4345866;32;33321;-85
2022/07/31 09:45:31;;;;;;;2.67;1.10;;;;;;;21.21;55.94;99581.13;4381096;32;32920;-85
2022/07/31 09:48:07;;;;;;;2.25;1.20;;;;;;;21.51;54.75;99575.78;4363890;32;34039;-84
2022/07/31 09:50:55;;;;;;;2.60;1.33;;;;;;;21.74;54.48;99577.19;4378703;32;34549;-84
2022/07/31 09:53:26;;;;;;;1.58;1.10;;;;;;;21.62;55.02;99571.12;4365389;32;32334;-84
2022/07/31 09:55:56;;;;;;;1.42;1.30;;;;;;;21.76;53.73;99574.37;4365579;32;33273;-84
2022/07/31 09:58:28;;;;;;;4.18;1.00;;;;;;;21.66;55.31;99559.13;4368610;32;33418;-84
2022/07/31 10:00:56;;;;;;;1.50;1.20;;;;;;;22.07;53.45;99570.47;4363410;32;33595;-84
2022/07/31 10:03:27;;;;;;;1.17;0.98;;;;;;;21.99;53.72;99570.38;4364523;32;32924;-84
2022/07/31 10:05:57;;;;;;;2.40;1.15;;;;;;;22.24;53.17;99575.13;4356077;32;33887;-84
2022/07/31 10:08:28;;;;;;;2.58;1.10;;;;;;;21.98;53.95;99574.03;4367700;32;33149;-83
2022/07/31 10:10:58;;;;;;;5.53;2.10;;;;;;;22.09;53.35;99581.94;4364646;32;34000;-84
2022/07/31 10:16:09;;;;;;;2.65;1.20;;;;;;;22.22;52.58;99582.50;4373452;32;34021;-84
2022/07/31 10:18:45;;;;;;;4.70;1.20;;;;;;;21.92;53.57;99561.19;4337227;32;32642;-84
2022/07/31 10:23:58;;;;;;;1.77;1.27;;;;;;;22.15;52.84;99559.03;4378676;32;32364;-85
2022/07/31 10:26:27;;;;;;;3.10;1.50;;;;;;;22.10;52.48;99577.41;4340936;32;33115;-83
2022/07/31 10:29:17;;;;;;;6.90;1.62;;;;;;;22.29;52.74;99560.38;4384143;32;33252;-83
2022/07/31 10:31:49;;;;;;;;;;;;;;;22.22;53.50;99563.69;4363981;32;33781;-83
2022/07/31 10:34:23;;;;;;;2.25;1.75;;;;;;;22.41;53.44;99569.97;4384898;32;33740;-83
2022/07/31 10:37:03;;;;;;;6.60;3.15;;;;;;;22.48;52.41;99576.44;4370387;32;33413;-83
2022/07/31 10:40:16;;;;;;;5.10;1.20;;;;;;;22.46;53.80;99573.06;4360831;32;32955;-85
2022/07/31 10:43:19;;;;;;;5.53;1.35;;;;;;;22.39;53.33;99567.41;4369443;32;33854;-83
2022/07/31 10:45:52;;;;;;;4.20;1.10;;;;;;;22.45;52.91;99572.19;4360001;32;33738;-85
2022/07/31 10:48:22;;;;;;;1.30;1.00;;;;;;;22.72;51.88;99560.59;4388793;32;32178;-83
2022/07/31 10:51:07;;;;;;;3.28;1.45;;;;;;;22.70;50.83;99578.75;4384922;32;32412;-82
2022/07/31 10:53:53;;;;;;;1.55;1.25;;;;;;;22.23;52.81;99572.59;4373013;32;34674;-83
2022/07/31 10:59:02;;;;;;;1.85;1.20;;;;;;;22.50;51.64;99585.19;4363095;32;33878;-83
2022/07/31 11:01:31;;;;;;;1.75;1.02;;;;;;;22.48;51.01;99603.34;4360908;32;33076;-83
2022/07/31 11:04:03;;;;;;;2.22;1.20;;;;;;;22.42;50.36;99598.56;4388776;32;34345;-83
2022/07/31 11:06:39;;;;;;;2.37;1.08;;;;;;;22.48;50.46;99592.59;4362850;32;32724;-83
2022/07/31 11:09:08;;;;;;;2.60;1.15;;;;;;;22.59;49.98;99595.06;4390383;32;32900;-82
2022/07/31 11:11:37;;;;;;;2.78;1.17;;;;;;;22.54;49.15;99602.75;4390564;32;33523;-82
2022/07/31 11:14:06;;;;;;;4.37;1.27;;;;;;;22.74;48.90;99615.13;4363804;32;33062;-82
2022/07/31 11:16:54;;;;;;;4.70;0.85;;;;;;;22.57;49.33;99613.22;4363714;32;33593;-83
2022/07/31 11:19:36;;;;;;;2.85;0.80;;;;;;;22.60;48.77;99617.44;4387881;32;33300;-82
2022/07/31 11:22:11;;;;;;;1.67;1.48;;;;;;;22.78;49.43;99618.34;4359332;32;33602;-83
2022/07/31 11:25:00;;;;;;;1.27;1.05;;;;;;;22.70;48.67;99618.28;4375690;32;33046;-83
2022/07/31 11:27:32;;;;;;;2.58;1.33;;;;;;;22.88;48.05;99618.31;4372226;32;32921;-83
2022/07/31 11:30:06;;;;;;;2.03;0.90;;;;;;;22.85;48.61;99616.78;4378985;32;34739;-83
2022/07/31 11:32:49;;;;;;;1.48;1.10;;;;;;;23.06;48.19;99619.22;4366900;32;33826;-83
2022/07/31 11:35:28;;;;;;;1.45;1.00;;;;;;;23.31;48.39;99616.78;4364810;32;34445;-84
2022/07/31 11:37:58;;;;;;;2.30;1.27;;;;;;;23.53;46.79;99624.41;4365396;32;31546;-83
2022/07/31 11:40:28;;;;;;;2.55;1.40;;;;;;;23.45;47.64;99629.72;4366162;32;34087;-83
2022/07/31 11:43:00;;;;;;;1.65;1.05;;;;;;;23.22;48.64;99635.59;4368588;32;34511;-83
2022/07/31 11:45:51;;;;;;;3.60;1.20;;;;;;;23.42;47.85;99635.44;4365561;32;33143;-83
2022/07/31 11:48:26;;;;;;;1.00;0.90;;;;;;;23.73;47.19;99631.38;4376151;32;32716;-83
2022/07/31 11:51:02;;;;;;;4.30;1.08;;;;;;;23.98;46.92;99626.19;4388794;32;33248;-83
2022/07/31 11:53:38;;;;;;;1.80;1.00;;;;;;;23.90;45.07;99632.38;4376767;32;33130;-84
2022/07/31 11:56:09;;;;;;;3.53;1.45;;;;;;;23.90;46.27;99626.13;4388753;32;34045;-83
2022/07/31 11:58:48;;;;;;;2.05;1.12;;;;;;;23.70;45.68;99638.94;4367637;32;34680;-83
2022/07/31 12:01:26;;;;;;;2.67;1.10;;;;;;;23.65;46.27;99636.72;4386235;32;33161;-83
2022/07/31 12:04:03;;;;;;;5.75;1.58;;;;;;;23.58;46.17;99635.59;4354678;32;32716;-83
2022/07/31 12:09:22;;;;;;;2.03;0.98;;;;;;;23.02;46.50;99631.28;4365322;32;32268;-83
2022/07/31 12:12:10;;;;;;;1.40;1.08;;;;;;;22.69;48.11;99633.59;4376670;32;33810;-83
2022/07/31 12:14:39;;;;;;;2.47;1.15;;;;;;;22.96;46.73;99619.28;4378534;32;34929;-83
2022/07/31 12:17:18;;;;;;;1.30;0.93;;;;;;;22.85;47.52;99632.94;4351848;32;32698;-83